sensor_id;sensor_type;location;lat;lon;timestamp;temperature;humidity
46458;DHT22;32155;54.076;12.092;2023-05-28T00:01:12;11.00;99.90
46458;DHT22;32155;54.076;12.092;2023-05-28T00:03:38;10.80;99.90
46458;DHT22;32155;54.076;12.092;2023-05-28T00:06:09;10.80;99.90
46458;DHT22;32155;54.076;12.092;2023-05-28T00:08:38;10.70;99.90
46458;DHT22;32155;54.076;12.092;2023-05-28T00:11:04;10.70;99.90
46458;DHT22;32155;54.076;12.092;2023-05-28T00:13:42;10.70;99.90
46458;DHT22;32155;54.076;12.092;2023-05-28T00:16:16;10.60;99.90
46458;DHT22;32155;54.076;12.092;2023-05-28T00:18:42;10.70;99.90
46458;DHT22;32155;54.076;12.092;2023-05-28T00:24:02;10.80;99.90
46458;DHT22;32155;54.076;12.092;2023-05-28T00:29:33;10.90;99.90
46458;DHT22;32155;54.076;12.092;2023-05-28T00:32:17;10.80;99.90
46458;DHT22;32155;54.076;12.092;2023-05-28T00:34:43;10.80;99.90
46458;DHT22;32155;54.076;12.092;2023-05-28T00:37:08;10.70;99.90
46458;DHT22;32155;54.076;12.092;2023-05-28T00:39:36;10.70;99.90
46458;DHT22;32155;54.076;12.092;2023-05-28T00:43:13;10.60;99.90
46458;DHT22;32155;54.076;12.092;2023-05-28T00:45:19;10.60;99.90
46458;DHT22;32155;54.076;12.092;2023-05-28T00:47:53;10.50;99.90
46458;DHT22;32155;54.076;12.092;2023-05-28T00:50:35;10.50;99.90
46458;DHT22;32155;54.076;12.092;2023-05-28T00:53:06;10.40;99.90
46458;DHT22;32155;54.076;12.092;2023-05-28T00:55:32;10.40;99.90
46458;DHT22;32155;54.076;12.092;2023-05-28T00:58:48;10.40;99.90
46458;DHT22;32155;54.076;12.092;2023-05-28T01:01:00;10.40;99.90
46458;DHT22;32155;54.076;12.092;2023-05-28T01:03:26;10.40;99.90
46458;DHT22;32155;54.076;12.092;2023-05-28T01:06:06;10.40;99.90
46458;DHT22;32155;54.076;12.092;2023-05-28T01:08:35;10.40;99.90
46458;DHT22;32155;54.076;12.092;2023-05-28T01:11:05;10.40;99.90
46458;DHT22;32155;54.076;12.092;2023-05-28T01:13:37;10.40;99.90
46458;DHT22;32155;54.076;12.092;2023-05-28T01:16:04;10.40;99.90
46458;DHT22;32155;54.076;12.092;2023-05-28T01:18:36;10.40;99.90
46458;DHT22;32155;54.076;12.092;2023-05-28T01:21:06;10.40;99.90
46458;DHT22;32155;54.076;12.092;2023-05-28T01:23:38;10.40;99.90
46458;DHT22;32155;54.076;12.092;2023-05-28T01:26:09;10.40;99.90
46458;DHT22;32155;54.076;12.092;2023-05-28T01:28:44;10.40;99.90
46458;DHT22;32155;54.076;12.092;2023-05-28T01:31:14;10.40;99.90
46458;DHT22;32155;54.076;12.092;2023-05-28T01:33:39;10.30;99.90
46458;DHT22;32155;54.076;12.092;2023-05-28T01:36:23;10.30;99.90
46458;DHT22;32155;54.076;12.092;2023-05-28T01:38:50;10.30;99.90
46458;DHT22;32155;54.076;12.092;2023-05-28T01:41:18;10.20;99.90
46458;DHT22;32155;54.076;12.092;2023-05-28T01:43:44;10.10;99.90
46458;DHT22;32155;54.076;12.092;2023-05-28T01:46:11;10.10;99.90
46458;DHT22;32155;54.076;12.092;2023-05-28T01:48:37;10.10;99.90
46458;DHT22;32155;54.076;12.092;2023-05-28T01:51:03;10.10;99.90
46458;DHT22;32155;54.076;12.092;2023-05-28T01:53:29;10.20;99.90
46458;DHT22;32155;54.076;12.092;2023-05-28T01:55:55;10.20;99.90
46458;DHT22;32155;54.076;12.092;2023-05-28T01:58:21;10.10;99.90
46458;DHT22;32155;54.076;12.092;2023-05-28T02:01:05;10.00;99.90
46458;DHT22;32155;54.076;12.092;2023-05-28T02:03:35;9.90;99.90
46458;DHT22;32155;54.076;12.092;2023-05-28T02:06:03;9.90;99.90
46458;DHT22;32155;54.076;12.092;2023-05-28T02:08:35;9.90;99.90
46458;DHT22;32155;54.076;12.092;2023-05-28T02:11:01;9.90;99.90
46458;DHT22;32155;54.076;12.092;2023-05-28T02:13:29;9.90;99.90
46458;DHT22;32155;54.076;12.092;2023-05-28T02:15:55;10.00;99.90
46458;DHT22;32155;54.076;12.092;2023-05-28T02:18:21;10.00;99.90
46458;DHT22;32155;54.076;12.092;2023-05-28T02:20:47;9.90;99.90
46458;DHT22;32155;54.076;12.092;2023-05-28T02:23:13;9.90;99.90
46458;DHT22;32155;54.076;12.092;2023-05-28T02:25:46;10.10;99.90
46458;DHT22;32155;54.076;12.092;2023-05-28T02:28:12;10.10;99.90
46458;DHT22;32155;54.076;12.092;2023-05-28T02:30:38;10.20;99.90
46458;DHT22;32155;54.076;12.092;2023-05-28T02:33:03;10.30;99.90
46458;DHT22;32155;54.076;12.092;2023-05-28T02:35:30;10.20;99.90
46458;DHT22;32155;54.076;12.092;2023-05-28T02:37:58;10.10;99.90
46458;DHT22;32155;54.076;12.092;2023-05-28T02:40:24;10.10;99.90
46458;DHT22;32155;54.076;12.092;2023-05-28T02:42:50;10.00;99.90
46458;DHT22;32155;54.076;12.092;2023-05-28T02:45:22;10.10;99.90
46458;DHT22;32155;54.076;12.092;2023-05-28T02:47:50;10.10;99.90
46458;DHT22;32155;54.076;12.092;2023-05-28T02:50:19;10.10;99.90
46458;DHT22;32155;54.076;12.092;2023-05-28T02:52:51;10.10;99.90
46458;DHT22;32155;54.076;12.092;2023-05-28T02:55:30;10.20;99.90
46458;DHT22;32155;54.076;12.092;2023-05-28T02:58:11;10.20;99.90
46458;DHT22;32155;54.076;12.092;2023-05-28T03:01:25;10.00;99.90
46458;DHT22;32155;54.076;12.092;2023-05-28T03:03:58;10.00;99.90
46458;DHT22;32155;54.076;12.092;2023-05-28T03:06:26;9.90;99.90
46458;DHT22;32155;54.076;12.092;2023-05-28T03:09:10;9.90;99.90
46458;DHT22;32155;54.076;12.092;2023-05-28T03:11:42;9.80;99.90
46458;DHT22;32155;54.076;12.092;2023-05-28T03:14:40;9.80;99.90
46458;DHT22;32155;54.076;12.092;2023-05-28T03:17:09;9.80;99.90
46458;DHT22;32155;54.076;12.092;2023-05-28T03:19:38;9.70;99.90
46458;DHT22;32155;54.076;12.092;2023-05-28T03:22:06;9.70;99.90
46458;DHT22;32155;54.076;12.092;2023-05-28T03:24:37;9.80;99.90
46458;DHT22;32155;54.076;12.092;2023-05-28T03:27:26;9.90;99.90
46458;DHT22;32155;54.076;12.092;2023-05-28T03:29:55;10.00;99.90
46458;DHT22;32155;54.076;12.092;2023-05-28T03:32:26;10.10;99.90
46458;DHT22;32155;54.076;12.092;2023-05-28T03:35:00;10.00;99.90
46458;DHT22;32155;54.076;12.092;2023-05-28T03:37:26;10.00;99.90
46458;DHT22;32155;54.076;12.092;2023-05-28T03:39:54;10.00;99.90
46458;DHT22;32155;54.076;12.092;2023-05-28T03:42:26;10.10;99.90
46458;DHT22;32155;54.076;12.092;2023-05-28T03:45:00;10.20;99.90
46458;DHT22;32155;54.076;12.092;2023-05-28T03:47:26;10.20;99.90
46458;DHT22;32155;54.076;12.092;2023-05-28T03:49:57;10.20;99.90
46458;DHT22;32155;54.076;12.092;2023-05-28T03:52:26;10.30;99.90
46458;DHT22;32155;54.076;12.092;2023-05-28T03:54:57;10.30;99.90
46458;DHT22;32155;54.076;12.092;2023-05-28T03:57:28;10.30;99.90
46458;DHT22;32155;54.076;12.092;2023-05-28T03:59:54;10.30;99.90
46458;DHT22;32155;54.076;12.092;2023-05-28T04:02:23;10.40;99.90
46458;DHT22;32155;54.076;12.092;2023-05-28T04:04:51;10.50;99.90
46458;DHT22;32155;54.076;12.092;2023-05-28T04:07:17;10.60;99.90
46458;DHT22;32155;54.076;12.092;2023-05-28T04:09:50;10.60;99.90
46458;DHT22;32155;54.076;12.092;2023-05-28T04:12:25;10.70;99.90
46458;DHT22;32155;54.076;12.092;2023-05-28T04:15:15;10.80;99.90
46458;DHT22;32155;54.076;12.092;2023-05-28T04:17:40;10.80;99.90
46458;DHT22;32155;54.076;12.092;2023-05-28T04:22:53;11.00;99.90
46458;DHT22;32155;54.076;12.092;2023-05-28T04:25:34;11.10;99.90
46458;DHT22;32155;54.076;12.092;2023-05-28T04:28:40;11.30;99.90
46458;DHT22;32155;54.076;12.092;2023-05-28T04:31:22;11.30;99.90
46458;DHT22;32155;54.076;12.092;2023-05-28T04:33:52;11.40;99.90
46458;DHT22;32155;54.076;12.092;2023-05-28T04:36:19;11.50;99.90
46458;DHT22;32155;54.076;12.092;2023-05-28T04:38:58;11.60;99.90
46458;DHT22;32155;54.076;12.092;2023-05-28T04:41:36;11.70;99.90
46458;DHT22;32155;54.076;12.092;2023-05-28T04:44:03;11.70;99.90
46458;DHT22;32155;54.076;12.092;2023-05-28T04:46:29;11.90;99.90
46458;DHT22;32155;54.076;12.092;2023-05-28T04:48:58;11.90;99.90
46458;DHT22;32155;54.076;12.092;2023-05-28T04:51:24;12.00;99.90
46458;DHT22;32155;54.076;12.092;2023-05-28T04:53:55;12.20;99.90
46458;DHT22;32155;54.076;12.092;2023-05-28T04:56:37;12.30;99.90
46458;DHT22;32155;54.076;12.092;2023-05-28T04:59:03;12.50;99.90
46458;DHT22;32155;54.076;12.092;2023-05-28T05:01:36;12.80;99.90
46458;DHT22;32155;54.076;12.092;2023-05-28T05:04:04;13.00;99.90
46458;DHT22;32155;54.076;12.092;2023-05-28T05:06:33;13.10;99.90
46458;DHT22;32155;54.076;12.092;2023-05-28T05:09:11;13.10;99.90
46458;DHT22;32155;54.076;12.092;2023-05-28T05:11:42;13.30;99.90
46458;DHT22;32155;54.076;12.092;2023-05-28T05:14:17;13.40;99.90
46458;DHT22;32155;54.076;12.092;2023-05-28T05:16:42;13.80;99.90
46458;DHT22;32155;54.076;12.092;2023-05-28T05:19:14;14.00;99.90
46458;DHT22;32155;54.076;12.092;2023-05-28T05:21:52;14.20;99.90
46458;DHT22;32155;54.076;12.092;2023-05-28T05:24:20;14.20;99.90
46458;DHT22;32155;54.076;12.092;2023-05-28T05:26:52;14.30;99.90
46458;DHT22;32155;54.076;12.092;2023-05-28T05:29:17;14.40;99.90
46458;DHT22;32155;54.076;12.092;2023-05-28T05:31:53;14.70;99.90
46458;DHT22;32155;54.076;12.092;2023-05-28T05:34:32;14.90;99.90
46458;DHT22;32155;54.076;12.092;2023-05-28T05:46:04;15.90;99.90
46458;DHT22;32155;54.076;12.092;2023-05-28T05:51:54;16.70;99.90
46458;DHT22;32155;54.076;12.092;2023-05-28T05:54:41;17.00;99.90
46458;DHT22;32155;54.076;12.092;2023-05-28T05:57:24;17.10;99.90
46458;DHT22;32155;54.076;12.092;2023-05-28T05:59:54;17.20;99.90
46458;DHT22;32155;54.076;12.092;2023-05-28T06:02:30;17.40;99.90
46458;DHT22;32155;54.076;12.092;2023-05-28T06:05:01;17.70;99.90
46458;DHT22;32155;54.076;12.092;2023-05-28T06:07:28;17.90;99.90
46458;DHT22;32155;54.076;12.092;2023-05-28T06:09:54;18.00;99.90
46458;DHT22;32155;54.076;12.092;2023-05-28T06:12:34;18.10;99.90
46458;DHT22;32155;54.076;12.092;2023-05-28T06:15:05;18.30;99.90
46458;DHT22;32155;54.076;12.092;2023-05-28T06:17:37;18.60;99.90
46458;DHT22;32155;54.076;12.092;2023-05-28T06:20:21;19.10;99.90
46458;DHT22;32155;54.076;12.092;2023-05-28T06:23:06;19.30;99.90
46458;DHT22;32155;54.076;12.092;2023-05-28T06:25:37;19.60;99.90
46458;DHT22;32155;54.076;12.092;2023-05-28T06:28:07;20.00;99.90
46458;DHT22;32155;54.076;12.092;2023-05-28T06:30:51;20.40;99.90
46458;DHT22;32155;54.076;12.092;2023-05-28T06:33:29;20.70;99.90
46458;DHT22;32155;54.076;12.092;2023-05-28T06:35:57;21.00;99.90
46458;DHT22;32155;54.076;12.092;2023-05-28T06:38:29;21.40;99.90
46458;DHT22;32155;54.076;12.092;2023-05-28T06:40:57;21.70;99.90
46458;DHT22;32155;54.076;12.092;2023-05-28T06:43:35;21.80;99.90
46458;DHT22;32155;54.076;12.092;2023-05-28T06:46:01;22.30;99.90
46458;DHT22;32155;54.076;12.092;2023-05-28T06:48:27;22.40;99.90
46458;DHT22;32155;54.076;12.092;2023-05-28T06:50:55;22.40;99.90
46458;DHT22;32155;54.076;12.092;2023-05-28T06:53:22;22.40;99.90
46458;DHT22;32155;54.076;12.092;2023-05-28T06:55:48;22.70;99.90
46458;DHT22;32155;54.076;12.092;2023-05-28T06:58:16;23.00;99.90
46458;DHT22;32155;54.076;12.092;2023-05-28T07:00:42;23.30;99.90
46458;DHT22;32155;54.076;12.092;2023-05-28T07:03:08;23.50;99.90
46458;DHT22;32155;54.076;12.092;2023-05-28T07:05:33;23.90;99.90
46458;DHT22;32155;54.076;12.092;2023-05-28T07:08:17;24.00;99.90
46458;DHT22;32155;54.076;12.092;2023-05-28T07:16:30;23.60;99.90
46458;DHT22;32155;54.076;12.092;2023-05-28T07:19:02;23.20;99.90
46458;DHT22;32155;54.076;12.092;2023-05-28T07:24:21;22.60;99.90
46458;DHT22;32155;54.076;12.092;2023-05-28T07:27:05;22.30;99.90
46458;DHT22;32155;54.076;12.092;2023-05-28T07:29:34;22.50;99.90
46458;DHT22;32155;54.076;12.092;2023-05-28T07:32:11;22.90;99.90
46458;DHT22;32155;54.076;12.092;2023-05-28T07:34:49;24.00;99.90
46458;DHT22;32155;54.076;12.092;2023-05-28T07:37:29;25.20;99.90
46458;DHT22;32155;54.076;12.092;2023-05-28T07:40:04;25.70;99.90
46458;DHT22;32155;54.076;12.092;2023-05-28T07:42:49;26.40;99.90
46458;DHT22;32155;54.076;12.092;2023-05-28T07:45:33;26.90;99.90
46458;DHT22;32155;54.076;12.092;2023-05-28T07:48:28;25.70;99.90
46458;DHT22;32155;54.076;12.092;2023-05-28T07:51:22;24.70;99.90
46458;DHT22;32155;54.076;12.092;2023-05-28T07:53:57;23.90;99.90
46458;DHT22;32155;54.076;12.092;2023-05-28T07:56:26;23.70;99.90
46458;DHT22;32155;54.076;12.092;2023-05-28T08:01:49;23.90;99.90
46458;DHT22;32155;54.076;12.092;2023-05-28T08:04:14;23.70;99.90
46458;DHT22;32155;54.076;12.092;2023-05-28T08:06:40;23.90;99.90
46458;DHT22;32155;54.076;12.092;2023-05-28T08:09:12;24.70;99.90
46458;DHT22;32155;54.076;12.092;2023-05-28T08:11:41;24.10;99.90
46458;DHT22;32155;54.076;12.092;2023-05-28T08:14:07;24.10;99.90
46458;DHT22;32155;54.076;12.092;2023-05-28T08:16:45;24.50;99.90
46458;DHT22;32155;54.076;12.092;2023-05-28T08:19:22;25.10;99.90
46458;DHT22;32155;54.076;12.092;2023-05-28T08:21:50;24.80;99.90
46458;DHT22;32155;54.076;12.092;2023-05-28T08:24:20;24.70;99.90
46458;DHT22;32155;54.076;12.092;2023-05-28T08:26:46;24.90;99.90
46458;DHT22;32155;54.076;12.092;2023-05-28T08:29:23;24.30;99.90
46458;DHT22;32155;54.076;12.092;2023-05-28T08:58:02;25.80;97.10
46458;DHT22;32155;54.076;12.092;2023-05-28T09:03:38;25.10;98.00
46458;DHT22;32155;54.076;12.092;2023-05-28T09:06:07;25.70;98.10
46458;DHT22;32155;54.076;12.092;2023-05-28T09:08:38;27.30;96.20
46458;DHT22;32155;54.076;12.092;2023-05-28T09:11:13;28.90;94.20
46458;DHT22;32155;54.076;12.092;2023-05-28T09:53:03;34.40;66.50
46458;DHT22;32155;54.076;12.092;2023-05-28T10:04:57;36.30;58.90
46458;DHT22;32155;54.076;12.092;2023-05-28T10:07:24;36.10;58.10
46458;DHT22;32155;54.076;12.092;2023-05-28T10:10:17;36.00;59.00
46458;DHT22;32155;54.076;12.092;2023-05-28T10:12:59;36.20;57.60
46458;DHT22;32155;54.076;12.092;2023-05-28T10:21:44;37.80;54.30
46458;DHT22;32155;54.076;12.092;2023-05-28T10:24:11;37.60;54.20
46458;DHT22;32155;54.076;12.092;2023-05-28T10:26:39;37.60;53.40
46458;DHT22;32155;54.076;12.092;2023-05-28T10:29:06;38.10;52.90
46458;DHT22;32155;54.076;12.092;2023-05-28T10:41:39;37.80;50.90
46458;DHT22;32155;54.076;12.092;2023-05-28T10:44:15;38.00;50.70
46458;DHT22;32155;54.076;12.092;2023-05-28T10:46:44;37.70;50.70
46458;DHT22;32155;54.076;12.092;2023-05-28T10:49:29;36.90;51.70
46458;DHT22;32155;54.076;12.092;2023-05-28T10:58:49;38.70;49.40
46458;DHT22;32155;54.076;12.092;2023-05-28T11:10:19;38.90;48.00
46458;DHT22;32155;54.076;12.092;2023-05-28T11:21:50;38.90;48.40
46458;DHT22;32155;54.076;12.092;2023-05-28T11:24:21;39.10;47.50
46458;DHT22;32155;54.076;12.092;2023-05-28T12:27:35;33.00;45.60
46458;DHT22;32155;54.076;12.092;2023-05-28T13:40:46;24.20;50.00
46458;DHT22;32155;54.076;12.092;2023-05-28T13:43:12;23.90;50.00
46458;DHT22;32155;54.076;12.092;2023-05-28T14:01:24;23.60;51.30
46458;DHT22;32155;54.076;12.092;2023-05-28T17:21:20;19.30;90.10
46458;DHT22;32155;54.076;12.092;2023-05-28T17:23:49;19.30;91.00
46458;DHT22;32155;54.076;12.092;2023-05-28T17:26:14;19.20;90.50
46458;DHT22;32155;54.076;12.092;2023-05-28T17:28:40;19.20;91.60
46458;DHT22;32155;54.076;12.092;2023-05-28T17:31:06;19.10;91.80
46458;DHT22;32155;54.076;12.092;2023-05-28T17:33:32;18.90;93.00
46458;DHT22;32155;54.076;12.092;2023-05-28T17:36:01;18.90;93.20
46458;DHT22;32155;54.076;12.092;2023-05-28T17:38:26;18.90;93.80
46458;DHT22;32155;54.076;12.092;2023-05-28T17:40:52;18.90;94.50
46458;DHT22;32155;54.076;12.092;2023-05-28T17:43:21;18.80;94.50
46458;DHT22;32155;54.076;12.092;2023-05-28T17:45:47;18.70;94.90
46458;DHT22;32155;54.076;12.092;2023-05-28T17:48:21;18.70;95.60
46458;DHT22;32155;54.076;12.092;2023-05-28T17:50:47;18.70;96.10
46458;DHT22;32155;54.076;12.092;2023-05-28T17:53:12;18.60;96.40
46458;DHT22;32155;54.076;12.092;2023-05-28T17:55:38;18.60;96.90
46458;DHT22;32155;54.076;12.092;2023-05-28T17:58:04;18.40;97.70
46458;DHT22;32155;54.076;12.092;2023-05-28T18:00:29;18.40;98.60
46458;DHT22;32155;54.076;12.092;2023-05-28T18:02:57;18.40;99.40
46458;DHT22;32155;54.076;12.092;2023-05-28T18:05:25;18.40;99.90
46458;DHT22;32155;54.076;12.092;2023-05-28T18:07:53;18.20;99.90
46458;DHT22;32155;54.076;12.092;2023-05-28T18:10:21;18.00;99.90
46458;DHT22;32155;54.076;12.092;2023-05-28T18:12:47;17.90;99.90
46458;DHT22;32155;54.076;12.092;2023-05-28T18:15:22;17.90;99.90
46458;DHT22;32155;54.076;12.092;2023-05-28T18:17:50;17.80;99.90
46458;DHT22;32155;54.076;12.092;2023-05-28T18:26:09;17.50;99.90
46458;DHT22;32155;54.076;12.092;2023-05-28T18:28:37;17.40;99.90
46458;DHT22;32155;54.076;12.092;2023-05-28T18:37:06;17.10;99.90
46458;DHT22;32155;54.076;12.092;2023-05-28T18:39:32;17.10;99.90
46458;DHT22;32155;54.076;12.092;2023-05-28T18:42:00;17.00;99.90
46458;DHT22;32155;54.076;12.092;2023-05-28T18:44:49;16.90;99.90
46458;DHT22;32155;54.076;12.092;2023-05-28T18:50:06;16.80;99.90
46458;DHT22;32155;54.076;12.092;2023-05-28T18:52:45;16.70;99.90
46458;DHT22;32155;54.076;12.092;2023-05-28T18:55:11;16.60;99.90
46458;DHT22;32155;54.076;12.092;2023-05-28T18:57:50;16.50;99.90
46458;DHT22;32155;54.076;12.092;2023-05-28T19:00:22;16.40;99.90
46458;DHT22;32155;54.076;12.092;2023-05-28T19:02:50;16.20;99.90
46458;DHT22;32155;54.076;12.092;2023-05-28T19:05:16;16.20;99.90
46458;DHT22;32155;54.076;12.092;2023-05-28T19:07:42;16.20;99.90
46458;DHT22;32155;54.076;12.092;2023-05-28T19:10:13;16.10;99.90
46458;DHT22;32155;54.076;12.092;2023-05-28T19:21:59;15.70;99.90
46458;DHT22;32155;54.076;12.092;2023-05-28T19:24:32;15.70;99.90
46458;DHT22;32155;54.076;12.092;2023-05-28T19:27:04;15.60;99.90
46458;DHT22;32155;54.076;12.092;2023-05-28T19:29:56;15.50;99.90
46458;DHT22;32155;54.076;12.092;2023-05-28T19:32:35;15.40;99.90
46458;DHT22;32155;54.076;12.092;2023-05-28T19:37:59;15.20;99.90
46458;DHT22;32155;54.076;12.092;2023-05-28T19:40:28;15.10;99.90
46458;DHT22;32155;54.076;12.092;2023-05-28T19:42:56;15.00;99.90
46458;DHT22;32155;54.076;12.092;2023-05-28T19:48:01;14.80;99.90
46458;DHT22;32155;54.076;12.092;2023-05-28T19:50:27;14.80;99.90
46458;DHT22;32155;54.076;12.092;2023-05-28T19:52:56;14.70;99.90
46458;DHT22;32155;54.076;12.092;2023-05-28T19:55:27;14.70;99.90
46458;DHT22;32155;54.076;12.092;2023-05-28T19:57:56;14.60;99.90
46458;DHT22;32155;54.076;12.092;2023-05-28T20:00:27;14.60;99.90
46458;DHT22;32155;54.076;12.092;2023-05-28T20:02:59;14.60;99.90
46458;DHT22;32155;54.076;12.092;2023-05-28T20:05:45;14.50;99.90
46458;DHT22;32155;54.076;12.092;2023-05-28T20:08:15;14.40;99.90
46458;DHT22;32155;54.076;12.092;2023-05-28T20:10:41;14.40;99.90
46458;DHT22;32155;54.076;12.092;2023-05-28T20:13:27;14.30;99.90
46458;DHT22;32155;54.076;12.092;2023-05-28T20:15:59;14.30;99.90
46458;DHT22;32155;54.076;12.092;2023-05-28T20:18:54;14.20;99.90
46458;DHT22;32155;54.076;12.092;2023-05-28T20:21:27;14.10;99.90
46458;DHT22;32155;54.076;12.092;2023-05-28T20:23:59;14.10;99.90
46458;DHT22;32155;54.076;12.092;2023-05-28T20:26:33;14.00;99.90
46458;DHT22;32155;54.076;12.092;2023-05-28T20:29:01;14.00;99.90
46458;DHT22;32155;54.076;12.092;2023-05-28T20:31:38;14.00;99.90
46458;DHT22;32155;54.076;12.092;2023-05-28T20:34:16;13.90;99.90
46458;DHT22;32155;54.076;12.092;2023-05-28T20:36:42;13.90;99.90
46458;DHT22;32155;54.076;12.092;2023-05-28T20:39:15;13.80;99.90
46458;DHT22;32155;54.076;12.092;2023-05-28T20:41:44;13.80;99.90
46458;DHT22;32155;54.076;12.092;2023-05-28T20:44:16;13.70;99.90
46458;DHT22;32155;54.076;12.092;2023-05-28T20:52:46;13.70;99.90
46458;DHT22;32155;54.076;12.092;2023-05-28T20:55:20;13.70;99.90
46458;DHT22;32155;54.076;12.092;2023-05-28T20:57:47;13.70;99.90
46458;DHT22;32155;54.076;12.092;2023-05-28T21:00:18;13.70;99.90
46458;DHT22;32155;54.076;12.092;2023-05-28T21:02:59;13.60;99.90
46458;DHT22;32155;54.076;12.092;2023-05-28T21:05:31;13.50;99.90
46458;DHT22;32155;54.076;12.092;2023-05-28T21:08:22;13.40;99.90
46458;DHT22;32155;54.076;12.092;2023-05-28T21:11:03;13.30;99.90
46458;DHT22;32155;54.076;12.092;2023-05-28T21:13:49;13.30;99.90
46458;DHT22;32155;54.076;12.092;2023-05-28T21:16:20;13.30;99.90
46458;DHT22;32155;54.076;12.092;2023-05-28T21:18:49;13.30;99.90
46458;DHT22;32155;54.076;12.092;2023-05-28T21:21:30;13.30;99.90
46458;DHT22;32155;54.076;12.092;2023-05-28T21:24:04;13.30;99.90
46458;DHT22;32155;54.076;12.092;2023-05-28T21:26:35;13.20;99.90
46458;DHT22;32155;54.076;12.092;2023-05-28T21:29:03;13.10;99.90
46458;DHT22;32155;54.076;12.092;2023-05-28T21:31:38;13.10;99.90
46458;DHT22;32155;54.076;12.092;2023-05-28T21:34:06;13.10;99.90
46458;DHT22;32155;54.076;12.092;2023-05-28T21:36:32;13.10;99.90
46458;DHT22;32155;54.076;12.092;2023-05-28T21:39:03;13.10;99.90
46458;DHT22;32155;54.076;12.092;2023-05-28T21:41:31;13.00;99.90
46458;DHT22;32155;54.076;12.092;2023-05-28T21:44:31;13.00;99.90
46458;DHT22;32155;54.076;12.092;2023-05-28T21:47:03;13.00;99.90
46458;DHT22;32155;54.076;12.092;2023-05-28T21:49:31;13.00;99.90
46458;DHT22;32155;54.076;12.092;2023-05-28T21:51:57;12.90;99.90
46458;DHT22;32155;54.076;12.092;2023-05-28T21:54:24;12.90;99.90
46458;DHT22;32155;54.076;12.092;2023-05-28T21:56:51;12.90;99.90
46458;DHT22;32155;54.076;12.092;2023-05-28T21:59:27;12.90;99.90
46458;DHT22;32155;54.076;12.092;2023-05-28T22:02:01;12.90;99.90
46458;DHT22;32155;54.076;12.092;2023-05-28T22:04:27;12.90;99.90
46458;DHT22;32155;54.076;12.092;2023-05-28T22:07:01;12.90;99.90
46458;DHT22;32155;54.076;12.092;2023-05-28T22:09:32;12.90;99.90
46458;DHT22;32155;54.076;12.092;2023-05-28T22:12:00;12.90;99.90
46458;DHT22;32155;54.076;12.092;2023-05-28T22:14:30;12.90;99.90
46458;DHT22;32155;54.076;12.092;2023-05-28T22:16:56;12.90;99.90
46458;DHT22;32155;54.076;12.092;2023-05-28T22:19:23;12.90;99.90
46458;DHT22;32155;54.076;12.092;2023-05-28T22:21:49;12.80;99.90
46458;DHT22;32155;54.076;12.092;2023-05-28T22:24:15;12.80;99.90
46458;DHT22;32155;54.076;12.092;2023-05-28T22:26:40;12.80;99.90
46458;DHT22;32155;54.076;12.092;2023-05-28T22:29:07;12.70;99.90
46458;DHT22;32155;54.076;12.092;2023-05-28T22:31:33;12.70;99.90
46458;DHT22;32155;54.076;12.092;2023-05-28T22:33:59;12.70;99.90
46458;DHT22;32155;54.076;12.092;2023-05-28T22:36:30;12.70;99.90
46458;DHT22;32155;54.076;12.092;2023-05-28T22:38:56;12.70;99.90
46458;DHT22;32155;54.076;12.092;2023-05-28T22:41:30;12.60;99.90
46458;DHT22;32155;54.076;12.092;2023-05-28T22:43:56;12.60;99.90
46458;DHT22;32155;54.076;12.092;2023-05-28T22:46:24;12.50;99.90
46458;DHT22;32155;54.076;12.092;2023-05-28T22:48:50;12.60;99.90
46458;DHT22;32155;54.076;12.092;2023-05-28T22:51:30;12.50;99.90
46458;DHT22;32155;54.076;12.092;2023-05-28T22:54:05;12.50;99.90
46458;DHT22;32155;54.076;12.092;2023-05-28T22:56:33;12.40;99.90
46458;DHT22;32155;54.076;12.092;2023-05-28T22:59:09;12.40;99.90
46458;DHT22;32155;54.076;12.092;2023-05-28T23:01:35;12.40;99.90
46458;DHT22;32155;54.076;12.092;2023-05-28T23:04:06;12.40;99.90
46458;DHT22;32155;54.076;12.092;2023-05-28T23:06:37;12.40;99.90
46458;DHT22;32155;54.076;12.092;2023-05-28T23:09:04;12.40;99.90
46458;DHT22;32155;54.076;12.092;2023-05-28T23:11:47;12.40;99.90
46458;DHT22;32155;54.076;12.092;2023-05-28T23:14:13;12.30;99.90
46458;DHT22;32155;54.076;12.092;2023-05-28T23:16:41;12.30;99.90
46458;DHT22;32155;54.076;12.092;2023-05-28T23:19:25;12.30;99.90
46458;DHT22;32155;54.076;12.092;2023-05-28T23:21:55;12.20;99.90
46458;DHT22;32155;54.076;12.092;2023-05-28T23:24:24;12.20;99.90
46458;DHT22;32155;54.076;12.092;2023-05-28T23:26:52;12.20;99.90
46458;DHT22;32155;54.076;12.092;2023-05-28T23:29:18;12.20;99.90
46458;DHT22;32155;54.076;12.092;2023-05-28T23:31:45;12.20;99.90
46458;DHT22;32155;54.076;12.092;2023-05-28T23:34:11;12.20;99.90
46458;DHT22;32155;54.076;12.092;2023-05-28T23:36:37;12.20;99.90
46458;DHT22;32155;54.076;12.092;2023-05-28T23:39:05;12.30;99.90
46458;DHT22;32155;54.076;12.092;2023-05-28T23:41:33;12.30;99.90
46458;DHT22;32155;54.076;12.092;2023-05-28T23:43:58;12.40;99.90
46458;DHT22;32155;54.076;12.092;2023-05-28T23:46:24;12.50;99.90
46458;DHT22;32155;54.076;12.092;2023-05-28T23:48:52;12.70;99.90
46458;DHT22;32155;54.076;12.092;2023-05-28T23:51:21;12.70;99.90
46458;DHT22;32155;54.076;12.092;2023-05-28T23:53:49;12.70;99.90
46458;DHT22;32155;54.076;12.092;2023-05-28T23:56:28;12.80;99.90
46458;DHT22;32155;54.076;12.092;2023-05-28T23:58:57;12.70;99.90
